createdAt,value
2018-12-26T00:03:21.881Z,5.90
2018-12-26T00:08:27.132Z,5.90
2018-12-26T00:13:32.367Z,5.90
2018-12-26T00:18:37.688Z,5.90
2018-12-26T00:23:42.892Z,5.90
2018-12-26T00:28:48.154Z,6.00
2018-12-26T00:33:53.377Z,6.00
2018-12-26T00:38:58.609Z,6.00
2018-12-26T00:44:03.837Z,6.00
2018-12-26T00:49:09.066Z,6.00
2018-12-26T00:54:14.279Z,6.00
2018-12-26T00:59:19.522Z,6.10
2018-12-26T01:04:24.760Z,6.00
2018-12-26T01:09:30.005Z,6.10
2018-12-26T01:14:35.237Z,6.10
2018-12-26T01:19:40.470Z,6.10
2018-12-26T01:24:45.735Z,6.10
2018-12-26T01:29:50.974Z,6.10
2018-12-26T01:34:56.200Z,6.10
2018-12-26T01:40:01.433Z,6.10
2018-12-26T01:45:06.937Z,6.10
2018-12-26T01:50:12.189Z,6.10
2018-12-26T01:55:17.435Z,6.10
2018-12-26T02:00:22.682Z,6.10
2018-12-26T02:05:28.051Z,6.20
2018-12-26T02:10:33.209Z,6.20
2018-12-26T02:15:38.481Z,6.20
2018-12-26T02:20:43.742Z,6.10
2018-12-26T02:25:48.982Z,6.10
2018-12-26T02:30:54.197Z,6.10
2018-12-26T02:35:59.426Z,6.10
2018-12-26T02:41:04.670Z,6.10
2018-12-26T02:46:09.909Z,6.10
2018-12-26T02:51:15.181Z,6.10
2018-12-26T02:56:20.445Z,6.10
2018-12-26T03:01:25.685Z,6.10
2018-12-26T03:06:30.998Z,6.10
2018-12-26T03:11:36.203Z,6.00
2018-12-26T03:16:41.483Z,6.10
2018-12-26T03:21:46.743Z,6.10
2018-12-26T03:26:56.255Z,6.00
2018-12-26T03:31:57.262Z,6.10
2018-12-26T03:37:02.546Z,6.00
2018-12-26T03:42:07.799Z,6.00
2018-12-26T03:47:13.041Z,6.00
2018-12-26T03:52:18.307Z,6.00
2018-12-26T03:57:23.566Z,6.00
2018-12-26T04:02:28.802Z,5.90
2018-12-26T04:07:34.046Z,6.00
2018-12-26T04:12:39.307Z,6.00
2018-12-26T04:17:44.581Z,6.00
2018-12-26T04:22:49.849Z,6.00
2018-12-26T04:27:55.079Z,6.00
2018-12-26T04:33:00.310Z,6.00
2018-12-26T04:38:05.546Z,6.00
2018-12-26T04:43:10.803Z,6.00
2018-12-26T04:48:16.078Z,6.00
2018-12-26T04:53:21.326Z,5.90
2018-12-26T04:58:26.553Z,5.90
2018-12-26T05:03:31.801Z,5.90
2018-12-26T05:08:37.050Z,5.90
2018-12-26T05:13:42.304Z,5.90
2018-12-26T05:18:47.545Z,5.90
2018-12-26T05:23:52.806Z,5.90
2018-12-26T05:28:58.045Z,5.90
2018-12-26T05:34:03.281Z,5.90
2018-12-26T05:39:08.994Z,5.90
2018-12-26T05:44:14.242Z,5.90
2018-12-26T05:49:19.499Z,5.90
2018-12-26T05:54:24.751Z,5.90
2018-12-26T05:59:29.986Z,5.90
2018-12-26T06:04:35.213Z,5.90
2018-12-26T06:09:40.459Z,5.90
2018-12-26T06:14:45.682Z,5.90
2018-12-26T06:19:50.929Z,5.90
2018-12-26T06:24:56.193Z,5.90
2018-12-26T06:30:01.421Z,5.80
2018-12-26T06:35:06.715Z,5.80
2018-12-26T06:40:11.947Z,5.80
2018-12-26T06:45:17.181Z,5.80
2018-12-26T06:50:22.435Z,5.80
2018-12-26T06:55:27.674Z,5.70
2018-12-26T07:00:32.921Z,5.70
2018-12-26T07:05:38.138Z,5.70
2018-12-26T07:10:43.384Z,5.70
2018-12-26T07:15:48.637Z,5.70
2018-12-26T07:20:53.892Z,5.70
2018-12-26T07:25:59.132Z,5.70
2018-12-26T07:31:04.375Z,5.60
2018-12-26T07:36:09.612Z,5.60
2018-12-26T07:41:14.964Z,5.60
2018-12-26T07:46:20.193Z,5.50
2018-12-26T07:51:25.430Z,5.50
2018-12-26T07:56:30.705Z,5.40
2018-12-26T08:01:35.970Z,5.40
2018-12-26T08:06:41.225Z,5.40
2018-12-26T08:11:46.459Z,5.50
2018-12-26T08:16:53.364Z,5.50
2018-12-26T08:21:56.983Z,5.40
2018-12-26T08:27:02.233Z,5.50
2018-12-26T08:32:07.474Z,5.50
2018-12-26T08:37:12.774Z,5.50
2018-12-26T08:42:18.003Z,5.50
2018-12-26T08:47:23.246Z,5.60
2018-12-26T08:52:28.470Z,5.50
2018-12-26T08:57:33.726Z,5.50
2018-12-26T09:02:38.961Z,5.60
2018-12-26T09:07:44.186Z,5.50
2018-12-26T09:12:49.418Z,5.50
2018-12-26T09:17:54.661Z,5.50
2018-12-26T09:22:59.893Z,5.40
2018-12-26T09:28:05.137Z,5.40
2018-12-26T09:33:10.367Z,5.40
2018-12-26T09:38:15.601Z,5.40
2018-12-26T09:43:20.874Z,5.40
2018-12-26T09:48:26.093Z,5.40
2018-12-26T09:53:31.322Z,5.40
2018-12-26T09:58:36.574Z,5.50
2018-12-26T10:03:41.811Z,5.40
2018-12-26T10:08:47.037Z,5.50
2018-12-26T10:13:52.266Z,5.40
2018-12-26T10:18:57.514Z,5.50
2018-12-26T10:24:02.858Z,5.40
2018-12-26T10:29:08.094Z,5.50
2018-12-26T10:34:13.419Z,5.50
2018-12-26T10:39:18.596Z,5.40
2018-12-26T10:44:23.830Z,5.40
2018-12-26T10:49:29.065Z,5.50
2018-12-26T10:54:34.282Z,5.40
2018-12-26T10:59:39.537Z,5.50
2018-12-26T11:04:44.766Z,5.50
2018-12-26T11:09:49.998Z,5.50
2018-12-26T11:14:55.218Z,5.60
2018-12-26T11:20:00.448Z,5.60
2018-12-26T11:25:06.103Z,5.70
2018-12-26T11:30:11.990Z,5.70
2018-12-26T11:35:17.226Z,5.70
2018-12-26T11:40:22.499Z,5.60
2018-12-26T11:45:27.750Z,5.60
2018-12-26T11:50:32.991Z,5.70
2018-12-26T11:55:38.234Z,5.70
2018-12-26T12:00:43.458Z,5.70
2018-12-26T12:05:48.726Z,5.80
2018-12-26T12:10:53.991Z,5.80
2018-12-26T12:15:59.247Z,5.70
2018-12-26T12:21:04.466Z,5.80
2018-12-26T12:26:09.692Z,5.80
2018-12-26T12:31:14.924Z,5.80
2018-12-26T12:36:20.274Z,5.80
2018-12-26T12:41:25.619Z,5.80
2018-12-26T12:46:30.881Z,5.80
2018-12-26T12:51:36.116Z,5.80
2018-12-26T12:56:41.375Z,5.80
2018-12-26T13:01:46.627Z,5.80
2018-12-26T13:06:51.853Z,5.80
2018-12-26T13:11:57.090Z,5.80
2018-12-26T13:17:02.341Z,5.80
2018-12-26T13:22:07.562Z,5.80
2018-12-26T13:27:12.797Z,5.90
2018-12-26T13:32:18.043Z,5.90
2018-12-26T13:37:23.296Z,5.90
2018-12-26T13:42:28.521Z,5.90
2018-12-26T13:47:33.759Z,5.90
2018-12-26T13:52:38.997Z,5.90
2018-12-26T13:57:44.247Z,5.90
2018-12-26T14:02:49.480Z,5.90
2018-12-26T14:07:54.729Z,5.90
2018-12-26T14:12:59.973Z,6.00
2018-12-26T14:18:05.238Z,5.90
2018-12-26T14:23:10.474Z,6.00
2018-12-26T14:28:15.730Z,5.90
2018-12-26T14:33:20.994Z,6.00
2018-12-26T14:38:26.329Z,5.90
2018-12-26T14:43:31.573Z,6.00
2018-12-26T14:48:36.843Z,6.00
2018-12-26T14:53:42.076Z,6.00
2018-12-26T14:58:47.388Z,5.90
2018-12-26T15:03:52.631Z,6.00
2018-12-26T15:08:57.865Z,6.00
2018-12-26T15:14:03.105Z,6.00
2018-12-26T15:19:17.629Z,6.00
2018-12-26T15:24:22.918Z,6.00
2018-12-26T15:29:28.153Z,6.00
2018-12-26T15:34:33.400Z,6.10
2018-12-26T15:39:38.621Z,6.00
2018-12-26T15:44:43.853Z,6.10
2018-12-26T15:49:49.125Z,6.10
2018-12-26T15:54:54.435Z,6.10
2018-12-26T15:59:59.699Z,6.10
2018-12-26T16:05:05.121Z,6.10
2018-12-26T16:10:10.712Z,6.10
2018-12-26T16:15:15.956Z,6.10
2018-12-26T16:20:21.211Z,6.20
2018-12-26T16:25:26.466Z,6.20
2018-12-26T16:30:31.702Z,6.20
2018-12-26T16:35:36.962Z,6.20
2018-12-26T16:40:42.214Z,6.20
2018-12-26T16:45:47.481Z,6.20
2018-12-26T16:50:52.719Z,6.30
2018-12-26T16:55:57.971Z,6.30
2018-12-26T17:01:03.207Z,6.20
2018-12-26T17:06:08.457Z,6.30
2018-12-26T17:11:13.674Z,6.30
2018-12-26T17:16:19.917Z,6.40
2018-12-26T17:21:25.143Z,6.40
2018-12-26T17:26:30.403Z,6.40
2018-12-26T17:31:35.637Z,6.50
2018-12-26T17:36:40.867Z,6.50
2018-12-26T17:41:46.130Z,6.50
2018-12-26T17:46:51.378Z,6.50
2018-12-26T17:51:56.643Z,6.50
2018-12-26T17:57:10.537Z,6.50
2018-12-26T18:02:22.781Z,6.50
2018-12-26T18:07:28.055Z,6.60
2018-12-26T18:12:33.364Z,6.60
2018-12-26T18:17:38.622Z,6.60
2018-12-26T18:22:43.877Z,6.60
2018-12-26T18:27:49.167Z,6.60
2018-12-26T18:32:54.435Z,6.70
2018-12-26T18:37:59.703Z,6.70
2018-12-26T18:43:04.953Z,6.70
2018-12-26T18:48:10.525Z,6.80
2018-12-26T18:53:15.793Z,6.80
2018-12-26T18:58:21.073Z,6.80
2018-12-26T19:03:26.407Z,6.80
2018-12-26T19:08:31.662Z,6.80
2018-12-26T19:13:36.898Z,6.80
2018-12-26T19:18:42.169Z,6.80
2018-12-26T19:23:47.425Z,6.80
2018-12-26T19:28:52.715Z,6.80
2018-12-26T19:33:57.957Z,6.80
2018-12-26T19:39:03.282Z,6.80
2018-12-26T19:44:08.534Z,6.80
2018-12-26T19:49:13.801Z,6.70
2018-12-26T19:54:19.094Z,6.70
2018-12-26T19:59:24.378Z,6.70
2018-12-26T20:04:29.634Z,6.80
2018-12-26T20:09:35.142Z,6.70
2018-12-26T20:14:40.422Z,6.80
2018-12-26T20:19:45.692Z,6.80
2018-12-26T20:24:50.966Z,6.80
2018-12-26T20:29:56.258Z,6.70
2018-12-26T20:35:02.646Z,6.70
2018-12-26T20:40:09.613Z,6.70
2018-12-26T20:45:15.153Z,6.70
2018-12-26T20:50:20.463Z,6.70
2018-12-26T20:55:25.782Z,6.70
2018-12-26T21:00:31.058Z,6.70
2018-12-26T21:05:36.662Z,6.80
2018-12-26T21:10:41.959Z,6.80
2018-12-26T21:15:47.242Z,6.90
2018-12-26T21:20:52.563Z,6.90
2018-12-26T21:25:57.822Z,6.90
2018-12-26T21:31:03.122Z,7.00
2018-12-26T21:36:08.418Z,7.00
2018-12-26T21:41:13.645Z,7.00
2018-12-26T21:46:18.894Z,7.00
2018-12-26T21:51:24.170Z,7.00
2018-12-26T21:56:29.414Z,7.00
2018-12-26T22:01:34.662Z,7.00
2018-12-26T22:06:39.926Z,7.00
2018-12-26T22:11:45.165Z,7.00
2018-12-26T22:16:50.394Z,7.00
2018-12-26T22:21:55.810Z,7.00
2018-12-26T22:27:01.072Z,7.00
2018-12-26T22:32:06.326Z,7.00
2018-12-26T22:37:11.570Z,7.00
2018-12-26T22:42:16.826Z,7.00
2018-12-26T22:47:22.101Z,7.10
2018-12-26T22:52:27.353Z,7.00
2018-12-26T22:57:32.594Z,7.00
2018-12-26T23:02:39.050Z,7.00
2018-12-26T23:07:43.126Z,7.00
2018-12-26T23:12:48.369Z,7.00
2018-12-26T23:17:53.601Z,7.10
2018-12-26T23:22:58.827Z,7.10
2018-12-26T23:28:04.089Z,7.10
2018-12-26T23:33:09.327Z,7.00
2018-12-26T23:38:14.550Z,7.00
2018-12-26T23:43:19.814Z,7.00
2018-12-26T23:48:25.062Z,7.00
2018-12-26T23:53:30.297Z,7.00
2018-12-26T23:58:35.533Z,6.90
